Time;durP1;ratioP1;P1;durP2;ratioP2;P2;SDS_P1;SDS_P2;PMS_P1;PMS_P2;Temp;Humidity;BMP_temperature;BMP_pressure;BME280_temperature;BME280_humidity;BME280_pressure;Samples;Min_cycle;Max_cycle;Signal;HPM_P1;HPM_P2
2023/09/22 00:00:34;;;;;;;12.75;3.97;;;;;;;22.25;58.96;99615.41;5430638;32;35172;-79
2023/09/22 00:03:37;;;;;;;12.63;4.00;;;;;;;22.25;59.56;99612.72;5397373;32;35404;-81
2023/09/22 00:06:39;;;;;;;;;;;;;;;22.89;57.34;99609.75;5429885;32;34060;-80
2023/09/22 00:09:42;;;;;;;11.38;3.92;;;;;;;23.53;55.45;99604.87;5420027;32;34145;-79
2023/09/22 00:12:45;;;;;;;14.55;5.05;;;;;;;23.38;55.79;99614.50;5417281;32;33961;-80
2023/09/22 00:15:47;;;;;;;9.57;4.15;;;;;;;23.07;56.79;99601.66;5414424;32;33981;-78
2023/09/22 00:18:50;;;;;;;12.80;4.35;;;;;;;22.87;57.42;99602.88;5415169;32;35245;-81
2023/09/22 00:21:55;;;;;;;12.27;4.62;;;;;;;22.74;58.17;99611.28;5431431;32;33939;-80
2023/09/22 00:24:58;;;;;;;10.27;4.07;;;;;;;22.62;58.71;99615.22;5428205;32;33908;-79
2023/09/22 00:28:00;;;;;;;12.27;4.28;;;;;;;22.46;59.36;99613.22;5416621;32;34360;-79
2023/09/22 00:31:03;;;;;;;;;;;;;;;22.11;60.47;99616.78;5414476;32;33293;-78
2023/09/22 00:34:06;;;;;;;13.10;4.03;;;;;;;22.31;60.21;99617.47;5430742;32;33991;-79
2023/09/22 00:37:09;;;;;;;9.95;3.90;;;;;;;22.12;61.09;99621.13;5429185;32;35091;-79
2023/09/22 00:40:12;;;;;;;10.60;4.03;;;;;;;22.13;60.83;99612.94;5427885;32;34062;-79
2023/09/22 00:43:17;;;;;;;10.00;3.60;;;;;;;22.12;61.09;99621.97;5416687;32;34061;-80
2023/09/22 00:46:23;;;;;;;9.75;3.58;;;;;;;21.89;62.06;99618.84;5413344;32;35444;-80
2023/09/22 00:49:26;;;;;;;9.68;3.53;;;;;;;21.28;64.43;99619.47;5414353;32;33678;-81
2023/09/22 00:52:29;;;;;;;10.95;4.22;;;;;;;22.03;61.94;99619.34;5410617;32;34490;-79
2023/09/22 00:55:31;;;;;;;;;;;;;;;21.73;62.74;99623.19;5427098;32;34001;-81
2023/09/22 00:58:34;;;;;;;9.13;3.50;;;;;;;21.55;63.59;99623.12;5430184;32;34105;-80
2023/09/22 01:01:36;;;;;;;;;;;;;;;21.44;64.03;99613.47;5411033;32;34087;-80
2023/09/22 01:04:39;;;;;;;8.40;3.73;;;;;;;20.89;66.32;99618.72;5430421;32;34093;-81
2023/09/22 01:07:41;;;;;;;8.55;3.67;;;;;;;21.93;62.90;99614.03;5428388;32;35168;-80
2023/09/22 01:10:44;;;;;;;12.02;3.62;;;;;;;21.97;62.55;99610.09;5415699;32;34052;-79
2023/09/22 01:13:46;;;;;;;10.77;3.60;;;;;;;21.14;65.62;99611.06;5414039;32;35766;-80
2023/09/22 01:16:51;;;;;;;7.05;3.50;;;;;;;21.05;66.23;99621.63;5416677;32;34070;-81
2023/09/22 01:19:54;;;;;;;11.88;3.87;;;;;;;20.79;67.31;99618.72;5431791;32;34763;-81
2023/09/22 01:22:56;;;;;;;10.63;4.00;;;;;;;20.84;67.42;99618.31;5430770;32;35533;-81
2023/09/22 01:25:59;;;;;;;;;;;;;;;20.86;67.64;99626.16;5431160;32;34418;-83
2023/09/22 01:29:01;;;;;;;11.27;3.37;;;;;;;21.05;66.83;99610.94;5430337;32;35395;-79
2023/09/22 01:32:09;;;;;;;10.10;3.55;;;;;;;21.42;65.51;99619.97;5418745;32;34314;-80
2023/09/22 01:35:13;;;;;;;9.80;4.20;;;;;;;21.92;63.57;99609.69;5430546;32;35176;-79
2023/09/22 01:38:19;;;;;;;10.40;3.87;;;;;;;21.39;65.27;99620.28;5403116;32;35280;-80
2023/09/22 01:41:22;;;;;;;10.45;4.10;;;;;;;20.67;67.95;99609.19;5432145;32;34907;-84
2023/09/22 01:44:24;;;;;;;8.88;3.90;;;;;;;21.01;67.83;99617.56;5416235;32;33954;-79
2023/09/22 01:47:27;;;;;;;11.50;3.85;;;;;;;21.65;64.90;99617.75;5433016;32;34112;-81
2023/09/22 01:50:34;;;;;;;10.55;3.90;;;;;;;20.73;68.77;99621.13;5429018;32;33224;-80
2023/09/22 01:53:37;;;;;;;10.80;3.92;;;;;;;20.67;68.87;99616.38;5417859;32;33489;-79
2023/09/22 01:56:39;;;;;;;10.15;3.87;;;;;;;20.98;67.64;99609.00;5430888;32;35268;-80
2023/09/22 01:59:42;;;;;;;11.48;4.22;;;;;;;21.41;65.34;99615.62;5430129;32;33926;-80
2023/09/22 02:02:46;;;;;;;8.52;3.62;;;;;;;21.17;67.12;99624.97;5432789;32;33965;-79
2023/09/22 02:05:48;;;;;;;9.70;3.70;;;;;;;21.55;65.23;99620.47;5430348;32;33828;-80
2023/09/22 02:08:51;;;;;;;9.23;4.05;;;;;;;21.28;66.10;99616.78;5428079;32;36517;-79
2023/09/22 02:11:53;;;;;;;14.52;4.18;;;;;;;21.97;63.51;99612.75;5417052;32;33909;-80
2023/09/22 02:14:56;;;;;;;13.00;4.30;;;;;;;21.82;63.90;99611.56;5416784;32;35270;-80
2023/09/22 02:17:59;;;;;;;12.15;4.45;;;;;;;21.69;63.95;99619.13;5431484;32;34946;-80
2023/09/22 02:21:01;;;;;;;12.02;4.28;;;;;;;21.71;64.07;99611.81;5416536;32;35499;-80
2023/09/22 02:24:04;;;;;;;11.25;4.18;;;;;;;21.59;64.54;99619.19;5416869;32;33922;-80
2023/09/22 02:27:06;;;;;;;;;;;;;;;21.47;65.06;99626.56;5430471;32;36010;-80
2023/09/22 02:30:10;;;;;;;9.68;4.22;;;;;;;21.46;65.00;99619.53;5430693;32;34206;-81
2023/09/22 02:33:12;;;;;;;10.20;4.18;;;;;;;21.40;65.38;99614.78;5409275;32;35710;-79
2023/09/22 02:36:16;;;;;;;9.65;4.05;;;;;;;21.16;66.55;99614.41;5431271;32;33918;-79
2023/09/22 02:39:19;;;;;;;13.23;4.80;;;;;;;21.27;66.28;99608.91;5418316;32;33669;-80
2023/09/22 02:42:22;;;;;;;10.67;4.47;;;;;;;21.37;65.61;99615.06;5420656;32;33870;-80
2023/09/22 02:45:25;;;;;;;13.38;4.85;;;;;;;21.02;66.88;99610.41;5420024;32;34599;-80
2023/09/22 02:48:27;;;;;;;;;;;;;;;21.20;66.20;99599.78;5431351;32;35319;-81
2023/09/22 02:51:30;;;;;;;10.67;4.73;;;;;;;20.86;67.86;99615.47;5415099;32;33999;-80
2023/09/22 02:54:32;;;;;;;12.80;4.70;;;;;;;21.07;66.99;99611.66;5415525;32;33927;-79
2023/09/22 02:57:38;;;;;;;;;;;;;;;21.06;66.81;99612.63;5430487;32;35130;-84
2023/09/22 03:00:44;;;;;;;12.67;4.00;;;;;;;20.89;67.90;99608.03;5433715;32;34239;-81
2023/09/22 03:03:46;;;;;;;9.60;4.13;;;;;;;20.81;68.02;99600.75;5430679;32;36047;-83
2023/09/22 03:06:49;;;;;;;13.10;4.47;;;;;;;21.01;67.34;99606.03;5432549;32;34249;-80
2023/09/22 03:09:53;;;;;;;10.57;4.37;;;;;;;20.70;67.76;99574.22;5415287;32;35301;-81
2023/09/22 03:12:55;;;;;;;9.82;4.43;;;;;;;20.81;68.17;99605.25;5417773;32;33930;-80
2023/09/22 03:16:00;;;;;;;14.27;4.95;;;;;;;20.65;68.55;99597.81;5412615;32;33108;-80
2023/09/22 03:19:03;;;;;;;11.27;4.77;;;;;;;20.45;69.68;99586.34;5411845;32;35176;-79
2023/09/22 03:22:06;;;;;;;12.60;4.90;;;;;;;20.85;68.05;99587.94;5430917;32;32838;-79
2023/09/22 03:25:09;;;;;;;12.40;5.22;;;;;;;20.52;69.50;99592.78;5428240;32;35291;-79
2023/09/22 03:28:13;;;;;;;14.75;5.15;;;;;;;19.88;72.44;99603.97;5431588;32;34039;-79
2023/09/22 03:31:19;;;;;;;16.80;5.30;;;;;;;19.91;72.79;99600.22;5415444;32;33663;-78
2023/09/22 03:34:23;;;;;;;12.63;5.13;;;;;;;19.89;72.57;99599.50;5409906;32;35264;-79
2023/09/22 03:37:29;;;;;;;12.10;4.50;;;;;;;19.75;73.34;99598.06;5429606;32;35178;-79
2023/09/22 03:40:32;;;;;;;9.18;4.62;;;;;;;20.65;69.69;99597.81;5429727;32;34059;-82
2023/09/22 03:43:35;;;;;;;12.07;4.53;;;;;;;21.07;66.97;99570.72;5430817;32;34028;-80
2023/09/22 03:46:37;;;;;;;11.85;4.57;;;;;;;20.81;67.67;99591.91;5415970;32;34214;-79
2023/09/22 03:49:40;;;;;;;10.75;4.80;;;;;;;21.20;66.58;99602.47;5430700;32;33131;-78
2023/09/22 03:52:43;;;;;;;12.88;5.57;;;;;;;20.73;67.91;99570.41;5405368;32;35291;-82
2023/09/22 03:55:45;;;;;;;;;;;;;;;20.99;67.12;99590.13;5429113;32;35956;-80
2023/09/22 03:58:48;;;;;;;10.93;4.97;;;;;;;21.06;66.92;99591.25;5430791;32;32653;-81
2023/09/22 04:01:51;;;;;;;11.57;5.47;;;;;;;20.86;67.64;99583.44;5427974;32;35276;-79
2023/09/22 04:04:54;;;;;;;;;;;;;;;20.89;67.72;99586.66;5430199;32;34071;-81
2023/09/22 04:07:57;;;;;;;19.60;6.33;;;;;;;20.38;70.34;99582.53;5429453;32;34484;-78
2023/09/22 04:11:02;;;;;;;13.03;5.97;;;;;;;20.32;70.10;99584.91;5431763;32;35137;-78
2023/09/22 04:14:05;;;;;;;13.20;5.60;;;;;;;20.14;71.01;99598.94;5427979;32;35099;-78
2023/09/22 04:17:10;;;;;;;;;;;;;;;19.74;72.89;99588.41;5429426;32;33844;-78
2023/09/22 04:20:16;;;;;;;13.30;5.80;;;;;;;20.18;72.01;99602.19;5416713;32;32856;-79
2023/09/22 04:23:20;;;;;;;12.45;5.53;;;;;;;20.26;70.84;99597.00;5407287;32;33467;-78
2023/09/22 04:26:29;;;;;;;16.90;6.87;;;;;;;20.38;71.17;99601.22;5410219;32;33797;-81
2023/09/22 04:29:35;;;;;;;12.43;5.47;;;;;;;20.27;71.76;99604.00;5426134;32;34085;-81
2023/09/22 04:32:39;;;;;;;11.73;5.93;;;;;;;21.10;67.69;99608.66;5429441;32;33941;-80
2023/09/22 04:35:41;;;;;;;16.80;6.32;;;;;;;20.22;71.12;99590.25;5395167;32;35194;-78
2023/09/22 04:38:45;;;;;;;22.20;10.32;;;;;;;20.57;70.39;99604.87;5428811;32;33910;-79
2023/09/22 04:41:47;;;;;;;13.02;6.10;;;;;;;20.65;69.82;99596.97;5430901;32;33795;-80
2023/09/22 04:44:50;;;;;;;14.73;6.18;;;;;;;20.72;68.56;99601.59;5428022;32;35233;-80
2023/09/22 04:47:53;;;;;;;17.98;5.95;;;;;;;21.15;67.42;99607.41;5412059;32;33997;-79
2023/09/22 04:50:55;;;;;;;14.95;6.30;;;;;;;20.62;69.61;99605.28;5399352;32;35147;-79
2023/09/22 04:53:58;;;;;;;18.05;6.07;;;;;;;20.67;69.67;99616.38;5428274;32;33958;-79
2023/09/22 04:57:05;;;;;;;16.05;6.70;;;;;;;20.04;72.64;99624.78;5416276;32;34049;-81
2023/09/22 05:00:16;;;;;;;17.58;5.85;;;;;;;21.41;66.58;99619.13;5428532;32;34213;-79
2023/09/22 05:03:19;;;;;;;16.67;6.80;;;;;;;20.33;70.97;99622.13;5430818;32;33932;-78
2023/09/22 05:06:22;;;;;;;15.80;6.10;;;;;;;20.47;70.23;99621.72;5426113;32;34795;-79
2023/09/22 05:09:24;;;;;;;13.77;6.28;;;;;;;21.31;67.35;99623.66;5416644;32;35093;-79
2023/09/22 05:12:26;;;;;;;15.98;6.62;;;;;;;21.43;66.53;99616.31;5415018;32;35061;-79
2023/09/22 05:15:29;;;;;;;12.13;5.90;;;;;;;21.31;66.99;99637.88;5427789;32;32971;-79
2023/09/22 05:18:33;;;;;;;17.62;6.45;;;;;;;20.48;70.70;99638.56;5415943;32;35252;-79
2023/09/22 05:21:35;;;;;;;13.32;6.47;;;;;;;21.25;68.00;99626.87;5406927;32;35279;-79
2023/09/22 05:24:37;;;;;;;14.07;6.00;;;;;;;21.65;65.31;99626.63;5416300;32;34943;-79
2023/09/22 05:27:41;;;;;;;14.70;6.57;;;;;;;21.43;65.91;99640.34;5406505;32;33936;-79
2023/09/22 05:30:45;;;;;;;13.50;6.15;;;;;;;20.57;70.40;99636.91;5413668;32;34005;-79
2023/09/22 05:33:50;;;;;;;14.63;6.65;;;;;;;21.42;66.94;99634.19;5427015;32;35568;-79
2023/09/22 05:36:52;;;;;;;12.98;6.00;;;;;;;20.90;68.88;99633.75;5428390;32;33374;-78
2023/09/22 05:39:55;;;;;;;13.73;6.12;;;;;;;21.59;66.54;99629.88;5429498;32;34117;-80
2023/09/22 05:42:57;;;;;;;20.48;6.37;;;;;;;22.01;64.66;99618.63;5414636;32;34122;-79
2023/09/22 05:46:00;;;;;;;16.02;6.35;;;;;;;22.16;63.75;99612.66;5416577;32;33982;-80
2023/09/22 05:49:05;;;;;;;;;;;;;;;22.10;63.99;99620.44;5427481;32;33197;-78
2023/09/22 05:52:08;;;;;;;13.98;5.82;;;;;;;21.92;65.31;99625.75;5427948;32;34317;-85
2023/09/22 05:55:12;;;;;;;15.70;5.95;;;;;;;22.59;63.48;99628.91;5433866;32;35757;-85
2023/09/22 05:58:16;;;;;;;17.85;5.80;;;;;;;22.93;61.67;99629.88;5434467;32;34102;-86
2023/09/22 06:01:19;;;;;;;12.48;5.60;;;;;;;24.13;57.52;99628.88;5431380;32;35078;-88
2023/09/22 06:04:21;;;;;;;21.77;5.60;;;;;;;24.52;55.59;99622.88;5418294;32;34021;-83
2023/09/22 06:07:25;;;;;;;12.02;5.47;;;;;;;24.75;55.18;99631.12;5419440;32;34266;-83
2023/09/22 06:10:27;;;;;;;13.27;5.35;;;;;;;24.42;55.53;99635.66;5431803;32;34158;-86
2023/09/22 06:13:30;;;;;;;;;;;;;;;25.29;52.64;99637.59;5436003;32;33885;-83
2023/09/22 06:16:32;;;;;;;12.10;4.80;;;;;;;24.95;53.45;99637.81;5434467;32;33423;-86
2023/09/22 06:19:35;;;;;;;12.15;4.85;;;;;;;23.57;57.48;99634.87;5434154;32;33727;-81
2023/09/22 06:22:44;;;;;;;14.80;4.80;;;;;;;24.47;56.38;99639.53;5424527;32;35103;-81
2023/09/22 06:25:48;;;;;;;13.00;4.97;;;;;;;25.13;54.05;99645.72;5405240;32;35032;-82
2023/09/22 06:28:50;;;;;;;24.08;12.37;;;;;;;25.37;52.76;99650.16;5435922;32;35161;-82
2023/09/22 06:31:53;;;;;;;12.07;5.10;;;;;;;24.89;53.69;99648.41;5417985;32;33785;-81
2023/09/22 06:34:56;;;;;;;16.77;5.60;;;;;;;24.15;56.55;99651.03;5427836;32;33659;-80
2023/09/22 06:37:59;;;;;;;20.00;5.70;;;;;;;25.05;53.54;99651.94;5433255;32;33894;-79
2023/09/22 06:41:02;;;;;;;18.25;5.30;;;;;;;25.57;51.90;99651.47;5412843;32;34013;-78
2023/09/22 06:44:08;;;;;;;11.98;5.15;;;;;;;25.21;52.87;99652.91;5432377;32;34090;-79
2023/09/22 06:47:10;;;;;;;13.40;5.00;;;;;;;25.72;51.62;99654.25;5429486;32;35009;-79
2023/09/22 06:50:13;;;;;;;20.92;5.22;;;;;;;24.76;54.76;99644.38;5430228;32;34065;-80
2023/09/22 06:53:16;;;;;;;15.43;5.07;;;;;;;25.05;54.08;99643.87;5431075;32;34071;-82
2023/09/22 06:56:18;;;;;;;11.60;4.60;;;;;;;25.53;52.18;99658.19;5416119;32;33862;-82
2023/09/22 06:59:22;;;;;;;11.10;4.95;;;;;;;25.89;52.21;99647.81;5431616;32;33970;-79
2023/09/22 07:02:25;;;;;;;16.92;5.18;;;;;;;26.61;49.33;99644.00;5426159;32;35270;-83
2023/09/22 07:05:27;;;;;;;15.07;4.45;;;;;;;27.35;47.04;99649.53;5416638;32;34137;-80
2023/09/22 07:08:29;;;;;;;11.12;4.68;;;;;;;26.57;48.92;99645.38;5431875;32;32503;-81
2023/09/22 07:11:36;;;;;;;15.88;4.85;;;;;;;26.50;48.82;99660.59;5405436;32;33822;-78
2023/09/22 07:14:40;;;;;;;14.98;5.57;;;;;;;26.20;50.55;99657.72;5431128;32;34629;-82
2023/09/22 07:17:45;;;;;;;16.00;4.80;;;;;;;27.11;47.58;99643.34;5432298;32;34167;-85
2023/09/22 07:20:48;;;;;;;11.98;4.40;;;;;;;28.21;45.03;99661.41;5435895;32;34056;-82
2023/09/22 07:23:51;;;;;;;16.58;5.10;;;;;;;27.57;45.50;99664.78;5419467;32;33942;-79
2023/09/22 07:26:54;;;;;;;16.90;5.00;;;;;;;25.40;51.60;99676.75;5433105;32;34024;-81
2023/09/22 07:29:56;;;;;;;11.70;4.60;;;;;;;25.53;51.39;99668.13;5432836;32;34427;-82
2023/09/22 07:32:59;;;;;;;15.13;5.22;;;;;;;25.28;51.97;99670.03;5432872;32;34084;-83
2023/09/22 07:36:01;;;;;;;14.45;5.03;;;;;;;25.00;53.24;99666.88;5431308;32;34158;-82
2023/09/22 07:39:04;;;;;;;13.45;5.00;;;;;;;25.52;51.61;99678.03;5427650;32;34001;-82
2023/09/22 07:42:09;;;;;;;13.65;4.80;;;;;;;24.25;55.36;99667.81;5417109;32;34809;-80
2023/09/22 07:45:12;;;;;;;17.75;5.72;;;;;;;24.18;56.06;99680.22;5428601;32;34840;-83
2023/09/22 07:48:14;;;;;;;15.90;5.15;;;;;;;24.89;54.19;99677.97;5417531;32;35007;-81
2023/09/22 07:51:20;;;;;;;19.70;5.15;;;;;;;25.41;52.59;99669.50;5430900;32;35733;-83
2023/09/22 07:54:24;;;;;;;15.80;5.12;;;;;;;25.37;52.42;99677.94;5429318;32;33928;-81
2023/09/22 07:57:31;;;;;;;15.48;5.12;;;;;;;25.61;51.53;99677.00;5431477;32;33277;-80
2023/09/22 08:00:33;;;;;;;15.23;5.32;;;;;;;24.51;54.85;99686.53;5413996;32;33304;-80
2023/09/22 08:03:36;;;;;;;12.93;4.50;;;;;;;24.55;54.37;99677.12;5431742;32;33947;-82
2023/09/22 08:06:39;;;;;;;16.50;5.70;;;;;;;25.39;51.63;99678.59;5423714;32;35349;-82
2023/09/22 08:09:42;;;;;;;15.18;4.65;;;;;;;25.82;50.88;99680.97;5423508;32;34013;-80
2023/09/22 08:12:45;;;;;;;17.75;5.25;;;;;;;26.01;50.42;99683.22;5407507;32;35888;-79
2023/09/22 08:15:48;;;;;;;15.80;4.78;;;;;;;25.82;51.09;99683.66;5421591;32;34641;-81
2023/09/22 08:18:54;;;;;;;16.33;4.72;;;;;;;25.75;51.44;99682.69;5427190;32;34198;-83
2023/09/22 08:21:57;;;;;;;13.57;4.40;;;;;;;26.32;49.89;99694.00;5429894;32;33973;-82
2023/09/22 08:25:00;;;;;;;10.95;4.62;;;;;;;26.13;50.30;99694.44;5432156;32;33827;-82
2023/09/22 08:28:02;;;;;;;13.35;4.55;;;;;;;26.36;49.33;99698.03;5432686;32;35062;-81
2023/09/22 08:31:07;;;;;;;15.05;4.65;;;;;;;25.28;52.51;99695.09;5430828;32;34486;-83
2023/09/22 08:34:11;;;;;;;14.60;4.90;;;;;;;25.33;52.37;99687.34;5432147;32;34138;-82
2023/09/22 08:37:13;;;;;;;15.60;4.97;;;;;;;25.47;52.36;99691.16;5430560;32;34149;-83
2023/09/22 08:40:16;;;;;;;;;;;;;;;25.28;52.68;99689.69;5419177;32;33930;-79
2023/09/22 08:43:19;;;;;;;16.48;4.80;;;;;;;25.61;52.33;99695.00;5431327;32;34068;-81
2023/09/22 08:46:23;;;;;;;17.23;4.43;;;;;;;26.59;49.47;99689.97;5431209;32;33585;-84
2023/09/22 08:49:26;;;;;;;20.37;5.40;;;;;;;26.54;49.03;99680.78;5430431;32;33962;-80
2023/09/22 08:52:29;;;;;;;13.75;4.35;;;;;;;26.18;50.21;99684.00;5429570;32;34118;-82
2023/09/22 08:55:32;;;;;;;15.60;4.50;;;;;;;25.93;50.54;99689.50;5431475;32;35219;-86
2023/09/22 08:58:35;;;;;;;10.77;4.10;;;;;;;27.09;47.63;99677.78;5432264;32;35645;-81
2023/09/22 09:01:38;;;;;;;17.90;4.57;;;;;;;27.82;45.58;99678.81;5430850;32;34872;-81
2023/09/22 09:04:40;;;;;;;13.70;3.95;;;;;;;28.24;44.10;99670.00;5416934;32;34107;-81
2023/09/22 09:07:43;;;;;;;22.62;5.15;;;;;;;28.40;43.66;99663.53;5433153;32;33677;-80
2023/09/22 09:10:47;;;;;;;17.52;4.97;;;;;;;27.82;45.07;99667.19;5416670;32;33839;-84
2023/09/22 09:13:50;;;;;;;17.92;4.80;;;;;;;28.03;44.04;99660.00;5418517;32;34776;-81
2023/09/22 09:16:53;;;;;;;15.85;3.95;;;;;;;27.82;44.75;99668.03;5427844;32;33634;-81
2023/09/22 09:20:01;;;;;;;15.68;4.10;;;;;;;27.94;44.52;99665.69;5429896;32;34376;-82
2023/09/22 09:23:15;;;;;;;15.57;4.37;;;;;;;28.85;42.30;99656.03;5427909;32;33995;-87
2023/09/22 09:26:31;;;;;;;15.32;4.45;;;;;;;28.78;41.93;99657.84;5417042;32;34671;-80
2023/09/22 09:29:36;;;;;;;15.80;4.57;;;;;;;28.43;43.24;99654.22;5432503;32;34966;-81
2023/09/22 09:32:39;;;;;;;15.25;4.12;;;;;;;28.78;41.78;99655.97;5430516;32;35210;-83
2023/09/22 09:35:42;;;;;;;14.40;4.18;;;;;;;28.10;43.03;99649.25;5431168;32;35530;-83
2023/09/22 09:38:52;;;;;;;16.48;4.20;;;;;;;29.30;40.85;99653.88;5422343;32;33967;-80
2023/09/22 09:41:55;;;;;;;13.77;4.22;;;;;;;29.24;40.77;99650.13;5428561;32;34055;-81
2023/09/22 09:44:57;;;;;;;18.92;3.80;;;;;;;30.88;37.67;99639.22;5437226;32;35222;-84
2023/09/22 09:48:02;;;;;;;15.27;4.62;;;;;;;31.78;36.00;99635.69;5434009;32;34784;-79
2023/09/22 09:51:12;;;;;;;16.65;4.10;;;;;;;33.92;32.21;99630.97;5405131;32;35277;-82
2023/09/22 09:54:17;;;;;;;17.00;4.00;;;;;;;34.91;30.70;99617.72;5415839;32;33950;-80
2023/09/22 09:57:20;;;;;;;15.65;4.72;;;;;;;34.03;31.72;99618.47;5429831;32;33896;-83
2023/09/22 10:00:23;;;;;;;13.82;4.00;;;;;;;36.23;28.40;99603.28;5432950;32;34142;-82
2023/09/22 10:03:26;;;;;;;18.00;4.20;;;;;;;36.78;27.08;99588.91;5430163;32;34116;-83
2023/09/22 10:06:32;;;;;;;16.35;4.47;;;;;;;36.27;27.59;99594.34;5433036;32;34174;-84
2023/09/22 10:09:43;;;;;;;14.07;4.07;;;;;;;34.90;29.92;99605.94;5432420;32;35232;-81
2023/09/22 10:12:47;;;;;;;9.48;3.75;;;;;;;35.47;28.59;99589.78;5430940;32;34199;-82
2023/09/22 10:15:55;;;;;;;12.07;3.72;;;;;;;35.07;28.83;99577.97;5414834;32;33954;-84
2023/09/22 10:19:02;;;;;;;13.32;4.05;;;;;;;34.26;30.00;99583.06;5416738;32;33940;-85
2023/09/22 10:22:12;;;;;;;17.23;3.67;;;;;;;32.77;32.21;99590.69;5431284;32;35330;-82
2023/09/22 10:25:15;;;;;;;16.98;4.20;;;;;;;33.27;31.36;99579.75;5433375;32;33902;-82
2023/09/22 10:28:29;;;;;;;11.88;3.90;;;;;;;33.69;30.77;99577.19;5434235;32;33908;-84
2023/09/22 10:31:32;;;;;;;13.90;3.40;;;;;;;34.41;29.31;99571.72;5436416;32;34632;-81
2023/09/22 10:34:56;;;;;;;17.15;3.90;;;;;;;34.83;28.29;99566.19;5438691;32;34841;-83
2023/09/22 10:38:04;;;;;;;12.25;3.08;;;;;;;34.29;28.73;99574.44;5434513;32;35963;-83
2023/09/22 10:41:09;;;;;;;11.68;3.42;;;;;;;33.08;30.29;99570.75;5419218;32;35224;-80
2023/09/22 10:44:11;;;;;;;19.17;3.62;;;;;;;31.88;32.22;99578.19;5436070;32;33924;-83
2023/09/22 10:47:14;;;;;;;9.10;3.08;;;;;;;31.35;33.20;99567.53;5436840;32;34011;-89
2023/09/22 10:50:26;;;;;;;11.95;3.50;;;;;;;30.30;34.65;99572.00;5434256;32;33937;-85
2023/09/22 10:53:32;;;;;;;11.48;3.03;;;;;;;30.54;34.59;99565.13;5433074;32;35495;-83
2023/09/22 10:56:37;;;;;;;16.98;4.05;;;;;;;30.44;34.74;99572.84;5419968;32;33958;-82
2023/09/22 10:59:41;;;;;;;17.15;3.72;;;;;;;30.06;35.58;99564.44;5432271;32;33947;-78
2023/09/22 11:02:43;;;;;;;12.37;3.08;;;;;;;30.14;35.26;99561.56;5434905;32;34088;-81
2023/09/22 11:06:10;;;;;;;11.10;2.97;;;;;;;30.40;34.74;99567.03;5434677;32;35230;-82
2023/09/22 11:09:14;;;;;;;14.52;4.00;;;;;;;30.22;34.99;99557.84;5438306;32;35362;-83
2023/09/22 11:12:17;;;;;;;12.82;3.45;;;;;;;30.26;35.25;99559.91;5433974;32;35045;-80
2023/09/22 11:15:19;;;;;;;13.05;3.53;;;;;;;30.65;34.51;99553.63;5434561;32;34092;-83
2023/09/22 11:18:32;;;;;;;10.32;3.62;;;;;;;31.89;32.28;99558.13;5435370;32;35822;-82
2023/09/22 11:21:39;;;;;;;15.00;3.33;;;;;;;31.05;33.11;99550.91;5434480;32;33885;-81
2023/09/22 11:24:41;;;;;;;19.30;3.62;;;;;;;30.84;33.66;99546.53;5435097;32;34122;-87
2023/09/22 11:27:53;;;;;;;12.65;3.53;;;;;;;30.99;33.75;99551.75;5432757;32;34222;-82
2023/09/22 11:30:57;;;;;;;;;;;;;;;31.00;34.18;99534.41;5435612;32;32910;-82
2023/09/22 11:34:03;;;;;;;12.88;3.60;;;;;;;31.06;33.98;99549.03;5422482;32;35767;-82
2023/09/22 11:37:05;;;;;;;13.02;3.50;;;;;;;31.24;33.89;99546.50;5430687;32;35750;-81
2023/09/22 11:40:14;;;;;;;13.93;4.32;;;;;;;31.81;32.59;99550.19;5435072;32;34900;-86
2023/09/22 11:43:17;;;;;;;8.88;3.15;;;;;;;31.47;33.11;99544.09;5431106;32;33549;-86
2023/09/22 11:46:22;;;;;;;14.20;3.60;;;;;;;31.25;33.45;99540.84;5411347;32;34416;-82
2023/09/22 11:49:36;;;;;;;12.85;3.12;;;;;;;31.78;32.78;99546.03;5431435;32;32589;-81
2023/09/22 11:52:39;;;;;;;14.70;3.53;;;;;;;32.03;32.01;99548.81;5430769;32;35150;-84
2023/09/22 11:55:46;;;;;;;13.25;4.10;;;;;;;31.36;33.25;99549.34;5408254;32;34228;-85
2023/09/22 11:58:49;;;;;;;13.55;3.62;;;;;;;31.13;32.96;99542.53;5410853;32;32842;-83
2023/09/22 12:01:51;;;;;;;11.18;3.40;;;;;;;30.58;33.85;99543.84;5433009;32;33849;-80
2023/09/22 12:04:54;;;;;;;12.50;3.50;;;;;;;30.11;34.84;99541.13;5432671;32;33929;-85
2023/09/22 12:07:56;;;;;;;14.00;3.72;;;;;;;30.80;33.55;99544.50;5433551;32;34157;-83
2023/09/22 12:11:00;;;;;;;17.75;4.12;;;;;;;30.54;34.09;99542.63;5432473;32;35204;-83
2023/09/22 12:14:04;;;;;;;9.15;3.42;;;;;;;30.47;34.40;99556.19;5434828;32;34740;-82
2023/09/22 12:17:06;;;;;;;13.07;3.50;;;;;;;30.36;34.18;99552.19;5434480;32;35032;-81
2023/09/22 12:20:12;;;;;;;16.33;3.20;;;;;;;29.92;34.56;99548.16;5406372;32;34065;-86
2023/09/22 12:23:14;;;;;;;13.90;3.78;;;;;;;30.00;34.83;99559.84;5433059;32;35272;-83
2023/09/22 12:26:20;;;;;;;11.57;3.80;;;;;;;29.59;35.71;99567.03;5431155;32;33188;-83
2023/09/22 12:29:23;;;;;;;14.73;3.55;;;;;;;29.72;35.50;99571.66;5419791;32;35277;-81
2023/09/22 12:32:26;;;;;;;14.77;3.47;;;;;;;30.36;33.97;99560.34;5432584;32;33946;-82
2023/09/22 12:35:28;;;;;;;15.05;4.03;;;;;;;30.51;34.02;99559.28;5419447;32;34142;-83
2023/09/22 12:38:31;;;;;;;9.73;3.25;;;;;;;30.50;34.08;99566.59;5436280;32;34269;-82
2023/09/22 12:41:33;;;;;;;11.12;2.97;;;;;;;30.70;33.69;99555.75;5433260;32;35071;-79
2023/09/22 12:44:37;;;;;;;13.48;3.45;;;;;;;31.33;31.67;99556.06;5438115;32;34180;-81
2023/09/22 12:47:40;;;;;;;13.23;3.67;;;;;;;30.95;32.04;99556.75;5434891;32;34493;-83
2023/09/22 12:50:45;;;;;;;9.50;2.75;;;;;;;31.11;32.02;99560.91;5433651;32;34109;-79
2023/09/22 12:53:49;;;;;;;12.80;4.40;;;;;;;30.17;32.10;99563.88;5430056;32;35274;-81
2023/09/22 12:56:51;;;;;;;15.20;3.60;;;;;;;30.67;32.22;99558.87;5417565;32;34260;-78
2023/09/22 12:59:57;;;;;;;10.77;3.53;;;;;;;31.88;30.50;99542.00;5419934;32;35313;-86
2023/09/22 13:03:02;;;;;;;15.15;3.42;;;;;;;32.30;30.74;99552.16;5416449;32;33967;-80
2023/09/22 13:06:07;;;;;;;12.15;3.85;;;;;;;32.62;30.31;99538.53;5432454;32;34661;-83
2023/09/22 13:09:09;;;;;;;12.57;3.53;;;;;;;34.34;27.75;99541.84;5406208;32;34016;-84
2023/09/22 13:12:12;;;;;;;11.12;3.33;;;;;;;35.09;26.29;99543.06;5432356;32;36334;-83
2023/09/22 13:15:18;;;;;;;10.43;3.22;;;;;;;35.45;25.91;99536.47;5436774;32;34706;-84
2023/09/22 13:18:20;;;;;;;11.93;3.33;;;;;;;35.36;26.14;99530.53;5436187;32;33991;-87
2023/09/22 13:21:23;;;;;;;13.57;4.10;;;;;;;34.38;27.14;99537.56;5438405;32;35363;-86
2023/09/22 13:24:26;;;;;;;11.63;3.25;;;;;;;34.15;27.35;99534.81;5420674;32;34445;-84
2023/09/22 13:27:29;;;;;;;14.25;3.87;;;;;;;33.41;28.39;99543.16;5436616;32;33997;-89
2023/09/22 13:30:31;;;;;;;13.38;3.47;;;;;;;31.96;30.84;99545.31;5431871;32;33610;-85
2023/09/22 13:33:34;;;;;;;20.45;4.10;;;;;;;31.22;32.15;99543.94;5433805;32;34019;-83
2023/09/22 13:36:37;;;;;;;13.20;4.18;;;;;;;31.42;31.53;99537.63;5434163;32;35730;-82
2023/09/22 13:39:39;;;;;;;12.27;3.50;;;;;;;30.77;32.75;99536.75;5419549;32;33848;-86
2023/09/22 13:42:43;;;;;;;13.43;3.28;;;;;;;30.85;32.63;99536.53;5433798;32;33984;-85
2023/09/22 13:45:46;;;;;;;14.23;4.10;;;;;;;30.74;32.62;99529.88;5420418;32;34861;-86
2023/09/22 13:48:48;;;;;;;12.93;3.90;;;;;;;30.36;33.44;99524.25;5433791;32;33334;-83
2023/09/22 13:51:50;;;;;;;17.05;3.83;;;;;;;30.45;33.08;99525.72;5432407;32;33413;-87
2023/09/22 13:54:53;;;;;;;12.65;2.90;;;;;;;29.92;33.71;99518.38;5418742;32;35395;-82
2023/09/22 13:57:55;;;;;;;12.50;3.58;;;;;;;29.87;33.73;99523.56;5435436;32;35288;-84
2023/09/22 14:01:09;;;;;;;12.07;2.97;;;;;;;30.09;33.63;99524.22;5423604;32;34370;-84
2023/09/22 14:04:12;;;;;;;13.07;3.28;;;;;;;30.10;33.15;99527.81;5446363;32;36602;-91
2023/09/22 14:07:14;;;;;;;14.65;3.40;;;;;;;30.17;33.32;99517.81;5441082;32;34972;-87
2023/09/22 14:10:19;;;;;;;15.10;4.10;;;;;;;30.54;32.50;99521.75;5445715;32;34334;-87
2023/09/22 14:13:22;;;;;;;13.00;3.40;;;;;;;30.39;32.85;99519.25;5430945;32;33332;-86
2023/09/22 14:16:25;;;;;;;13.55;3.40;;;;;;;30.42;32.66;99518.84;5444933;32;34480;-84
2023/09/22 14:19:33;;;;;;;11.93;3.35;;;;;;;30.12;32.98;99521.13;5442912;32;34219;-83